sensor_id;sensor_type;location;lat;lon;timestamp;P1;durP1;ratioP1;P2;durP2;ratioP2
71351;SDS011;59159;51.652;4.864;2023-11-19T00:00:25;9.27;;;3.30;;
71351;SDS011;59159;51.652;4.864;2023-11-19T00:02:51;10.20;;;3.20;;
71351;SDS011;59159;51.652;4.864;2023-11-19T00:05:17;10.47;;;3.30;;
71351;SDS011;59159;51.652;4.864;2023-11-19T00:07:44;9.50;;;3.40;;
71351;SDS011;59159;51.652;4.864;2023-11-19T00:10:10;9.50;;;3.30;;
71351;SDS011;59159;51.652;4.864;2023-11-19T00:12:37;9.40;;;3.50;;
71351;SDS011;59159;51.652;4.864;2023-11-19T00:15:03;10.60;;;3.43;;
71351;SDS011;59159;51.652;4.864;2023-11-19T00:17:30;9.10;;;3.10;;
71351;SDS011;59159;51.652;4.864;2023-11-19T00:19:56;12.70;;;3.80;;
71351;SDS011;59159;51.652;4.864;2023-11-19T00:22:22;8.60;;;3.20;;
71351;SDS011;59159;51.652;4.864;2023-11-19T00:24:50;10.05;;;3.92;;
71351;SDS011;59159;51.652;4.864;2023-11-19T00:27:16;10.75;;;3.63;;
71351;SDS011;59159;51.652;4.864;2023-11-19T00:29:42;9.97;;;3.30;;
71351;SDS011;59159;51.652;4.864;2023-11-19T00:32:10;9.23;;;3.22;;
71351;SDS011;59159;51.652;4.864;2023-11-19T00:34:36;8.82;;;3.20;;
71351;SDS011;59159;51.652;4.864;2023-11-19T00:37:02;9.05;;;3.40;;
71351;SDS011;59159;51.652;4.864;2023-11-19T00:39:29;8.40;;;3.10;;
71351;SDS011;59159;51.652;4.864;2023-11-19T00:41:55;8.88;;;3.03;;
71351;SDS011;59159;51.652;4.864;2023-11-19T00:44:20;9.40;;;3.40;;
71351;SDS011;59159;51.652;4.864;2023-11-19T00:46:46;9.67;;;2.90;;
71351;SDS011;59159;51.652;4.864;2023-11-19T00:49:12;9.23;;;3.90;;
71351;SDS011;59159;51.652;4.864;2023-11-19T00:51:39;9.95;;;3.60;;
71351;SDS011;59159;51.652;4.864;2023-11-19T00:54:05;10.90;;;3.80;;
71351;SDS011;59159;51.652;4.864;2023-11-19T00:56:31;9.52;;;2.80;;
71351;SDS011;59159;51.652;4.864;2023-11-19T00:58:57;9.20;;;3.05;;
71351;SDS011;59159;51.652;4.864;2023-11-19T01:01:25;8.05;;;2.80;;
71351;SDS011;59159;51.652;4.864;2023-11-19T01:03:51;9.17;;;2.97;;
71351;SDS011;59159;51.652;4.864;2023-11-19T01:06:26;9.25;;;3.10;;
71351;SDS011;59159;51.652;4.864;2023-11-19T01:08:52;8.77;;;3.70;;
71351;SDS011;59159;51.652;4.864;2023-11-19T01:11:21;10.27;;;3.33;;
71351;SDS011;59159;51.652;4.864;2023-11-19T01:13:47;9.57;;;2.95;;
71351;SDS011;59159;51.652;4.864;2023-11-19T01:16:13;9.77;;;2.92;;
71351;SDS011;59159;51.652;4.864;2023-11-19T01:18:39;8.87;;;2.77;;
71351;SDS011;59159;51.652;4.864;2023-11-19T01:21:05;9.02;;;2.95;;
71351;SDS011;59159;51.652;4.864;2023-11-19T01:23:31;7.88;;;2.78;;
71351;SDS011;59159;51.652;4.864;2023-11-19T01:25:58;8.93;;;3.17;;
71351;SDS011;59159;51.652;4.864;2023-11-19T01:28:24;6.43;;;2.30;;
71351;SDS011;59159;51.652;4.864;2023-11-19T01:30:50;8.05;;;2.70;;
71351;SDS011;59159;51.652;4.864;2023-11-19T01:33:16;9.02;;;3.03;;
71351;SDS011;59159;51.652;4.864;2023-11-19T01:35:42;8.07;;;3.00;;
71351;SDS011;59159;51.652;4.864;2023-11-19T01:38:08;8.48;;;2.60;;
71351;SDS011;59159;51.652;4.864;2023-11-19T01:40:35;8.23;;;2.33;;
71351;SDS011;59159;51.652;4.864;2023-11-19T01:43:02;8.93;;;2.50;;
71351;SDS011;59159;51.652;4.864;2023-11-19T01:45:29;8.77;;;3.08;;
71351;SDS011;59159;51.652;4.864;2023-11-19T01:47:59;8.00;;;2.90;;
71351;SDS011;59159;51.652;4.864;2023-11-19T01:50:26;9.27;;;2.85;;
71351;SDS011;59159;51.652;4.864;2023-11-19T01:52:52;8.90;;;2.97;;
71351;SDS011;59159;51.652;4.864;2023-11-19T01:55:19;9.05;;;2.70;;
71351;SDS011;59159;51.652;4.864;2023-11-19T01:57:45;9.60;;;2.90;;
71351;SDS011;59159;51.652;4.864;2023-11-19T02:00:12;7.33;;;2.43;;
71351;SDS011;59159;51.652;4.864;2023-11-19T02:02:39;7.20;;;2.05;;
71351;SDS011;59159;51.652;4.864;2023-11-19T02:05:05;7.70;;;2.47;;
71351;SDS011;59159;51.652;4.864;2023-11-19T02:07:32;10.40;;;2.30;;
71351;SDS011;59159;51.652;4.864;2023-11-19T02:09:58;8.52;;;2.83;;
71351;SDS011;59159;51.652;4.864;2023-11-19T02:12:25;7.88;;;2.35;;
71351;SDS011;59159;51.652;4.864;2023-11-19T02:14:53;9.00;;;2.67;;
71351;SDS011;59159;51.652;4.864;2023-11-19T02:17:29;9.13;;;2.63;;
71351;SDS011;59159;51.652;4.864;2023-11-19T02:19:59;8.05;;;2.40;;
71351;SDS011;59159;51.652;4.864;2023-11-19T02:22:25;6.15;;;2.20;;
71351;SDS011;59159;51.652;4.864;2023-11-19T02:24:51;8.53;;;2.70;;
71351;SDS011;59159;51.652;4.864;2023-11-19T02:30:06;8.85;;;2.53;;
71351;SDS011;59159;51.652;4.864;2023-11-19T02:32:33;7.10;;;2.33;;
71351;SDS011;59159;51.652;4.864;2023-11-19T02:35:01;9.32;;;2.25;;
71351;SDS011;59159;51.652;4.864;2023-11-19T02:37:27;7.65;;;2.53;;
71351;SDS011;59159;51.652;4.864;2023-11-19T02:39:53;9.18;;;2.55;;
71351;SDS011;59159;51.652;4.864;2023-11-19T02:42:19;7.30;;;2.83;;
71351;SDS011;59159;51.652;4.864;2023-11-19T02:44:45;9.60;;;2.70;;
71351;SDS011;59159;51.652;4.864;2023-11-19T02:47:13;8.90;;;2.30;;
71351;SDS011;59159;51.652;4.864;2023-11-19T02:49:39;8.80;;;2.83;;
71351;SDS011;59159;51.652;4.864;2023-11-19T02:52:05;9.10;;;2.30;;
71351;SDS011;59159;51.652;4.864;2023-11-19T02:54:31;6.80;;;2.65;;
71351;SDS011;59159;51.652;4.864;2023-11-19T02:57:00;8.27;;;2.67;;
71351;SDS011;59159;51.652;4.864;2023-11-19T02:59:28;7.32;;;2.13;;
71351;SDS011;59159;51.652;4.864;2023-11-19T03:02:04;7.45;;;2.38;;
71351;SDS011;59159;51.652;4.864;2023-11-19T03:04:32;6.68;;;1.95;;
71351;SDS011;59159;51.652;4.864;2023-11-19T03:06:58;7.67;;;2.40;;
71351;SDS011;59159;51.652;4.864;2023-11-19T03:09:24;6.45;;;2.05;;
71351;SDS011;59159;51.652;4.864;2023-11-19T03:11:50;8.30;;;2.53;;
71351;SDS011;59159;51.652;4.864;2023-11-19T03:14:16;7.87;;;2.20;;
71351;SDS011;59159;51.652;4.864;2023-11-19T03:16:46;8.43;;;2.25;;
71351;SDS011;59159;51.652;4.864;2023-11-19T03:19:12;7.40;;;2.25;;
71351;SDS011;59159;51.652;4.864;2023-11-19T03:21:38;12.13;;;2.73;;
71351;SDS011;59159;51.652;4.864;2023-11-19T03:24:04;9.32;;;2.20;;
71351;SDS011;59159;51.652;4.864;2023-11-19T03:26:31;8.43;;;2.38;;
71351;SDS011;59159;51.652;4.864;2023-11-19T03:28:59;9.63;;;2.33;;
71351;SDS011;59159;51.652;4.864;2023-11-19T03:31:25;7.77;;;2.13;;
71351;SDS011;59159;51.652;4.864;2023-11-19T03:33:51;6.55;;;1.98;;
71351;SDS011;59159;51.652;4.864;2023-11-19T03:36:17;10.73;;;2.72;;
71351;SDS011;59159;51.652;4.864;2023-11-19T03:38:43;7.53;;;2.07;;
71351;SDS011;59159;51.652;4.864;2023-11-19T03:41:10;6.60;;;2.17;;
71351;SDS011;59159;51.652;4.864;2023-11-19T03:43:36;6.53;;;1.80;;
71351;SDS011;59159;51.652;4.864;2023-11-19T03:46:02;9.97;;;2.30;;
71351;SDS011;59159;51.652;4.864;2023-11-19T03:48:30;7.28;;;1.92;;
71351;SDS011;59159;51.652;4.864;2023-11-19T03:50:56;6.80;;;2.10;;
71351;SDS011;59159;51.652;4.864;2023-11-19T03:53:22;7.55;;;2.13;;
71351;SDS011;59159;51.652;4.864;2023-11-19T03:55:49;8.90;;;1.97;;
71351;SDS011;59159;51.652;4.864;2023-11-19T03:58:15;7.95;;;2.42;;
71351;SDS011;59159;51.652;4.864;2023-11-19T04:00:41;6.43;;;2.03;;
71351;SDS011;59159;51.652;4.864;2023-11-19T04:03:07;10.13;;;2.50;;
71351;SDS011;59159;51.652;4.864;2023-11-19T04:05:33;7.63;;;2.00;;
71351;SDS011;59159;51.652;4.864;2023-11-19T04:07:59;6.75;;;2.00;;
71351;SDS011;59159;51.652;4.864;2023-11-19T04:10:25;8.07;;;2.20;;
71351;SDS011;59159;51.652;4.864;2023-11-19T04:12:52;8.90;;;2.33;;
71351;SDS011;59159;51.652;4.864;2023-11-19T04:15:18;7.88;;;2.00;;
71351;SDS011;59159;51.652;4.864;2023-11-19T04:17:44;9.30;;;2.40;;
71351;SDS011;59159;51.652;4.864;2023-11-19T04:20:11;7.63;;;2.20;;
71351;SDS011;59159;51.652;4.864;2023-11-19T04:22:38;9.00;;;2.17;;
71351;SDS011;59159;51.652;4.864;2023-11-19T04:25:05;6.72;;;1.95;;
71351;SDS011;59159;51.652;4.864;2023-11-19T04:27:31;6.10;;;2.00;;
71351;SDS011;59159;51.652;4.864;2023-11-19T04:29:57;11.10;;;2.20;;
71351;SDS011;59159;51.652;4.864;2023-11-19T04:32:23;8.07;;;2.20;;
71351;SDS011;59159;51.652;4.864;2023-11-19T04:34:51;7.43;;;2.10;;
71351;SDS011;59159;51.652;4.864;2023-11-19T04:37:17;7.28;;;1.75;;
71351;SDS011;59159;51.652;4.864;2023-11-19T04:39:44;6.85;;;1.88;;
71351;SDS011;59159;51.652;4.864;2023-11-19T04:42:11;12.05;;;2.42;;
71351;SDS011;59159;51.652;4.864;2023-11-19T04:44:37;8.13;;;2.00;;
71351;SDS011;59159;51.652;4.864;2023-11-19T04:47:03;8.52;;;2.63;;
71351;SDS011;59159;51.652;4.864;2023-11-19T04:49:29;7.68;;;2.03;;
71351;SDS011;59159;51.652;4.864;2023-11-19T04:51:55;8.77;;;2.60;;
71351;SDS011;59159;51.652;4.864;2023-11-19T04:54:21;7.90;;;1.77;;
71351;SDS011;59159;51.652;4.864;2023-11-19T04:56:48;8.20;;;2.15;;
71351;SDS011;59159;51.652;4.864;2023-11-19T04:59:14;7.97;;;1.90;;
71351;SDS011;59159;51.652;4.864;2023-11-19T05:01:40;7.80;;;1.90;;
71351;SDS011;59159;51.652;4.864;2023-11-19T05:04:07;7.55;;;1.73;;
71351;SDS011;59159;51.652;4.864;2023-11-19T05:06:34;8.68;;;1.80;;
71351;SDS011;59159;51.652;4.864;2023-11-19T05:09:00;7.60;;;1.90;;
71351;SDS011;59159;51.652;4.864;2023-11-19T05:11:28;6.95;;;2.15;;
71351;SDS011;59159;51.652;4.864;2023-11-19T05:13:54;8.98;;;2.05;;
71351;SDS011;59159;51.652;4.864;2023-11-19T05:16:20;9.53;;;2.43;;
71351;SDS011;59159;51.652;4.864;2023-11-19T05:18:46;7.80;;;1.92;;
71351;SDS011;59159;51.652;4.864;2023-11-19T05:21:12;8.38;;;1.85;;
71351;SDS011;59159;51.652;4.864;2023-11-19T05:23:38;7.27;;;2.03;;
71351;SDS011;59159;51.652;4.864;2023-11-19T05:26:06;9.35;;;2.22;;
71351;SDS011;59159;51.652;4.864;2023-11-19T05:28:32;8.48;;;1.77;;
71351;SDS011;59159;51.652;4.864;2023-11-19T05:30:59;8.30;;;1.92;;
71351;SDS011;59159;51.652;4.864;2023-11-19T05:33:25;6.40;;;1.77;;
71351;SDS011;59159;51.652;4.864;2023-11-19T05:35:51;9.68;;;2.08;;
71351;SDS011;59159;51.652;4.864;2023-11-19T05:38:17;6.88;;;2.00;;
71351;SDS011;59159;51.652;4.864;2023-11-19T05:40:43;8.53;;;1.83;;
71351;SDS011;59159;51.652;4.864;2023-11-19T05:43:09;9.60;;;1.85;;
71351;SDS011;59159;51.652;4.864;2023-11-19T05:45:35;10.02;;;2.00;;
71351;SDS011;59159;51.652;4.864;2023-11-19T05:48:01;7.07;;;1.70;;
71351;SDS011;59159;51.652;4.864;2023-11-19T05:50:29;7.50;;;1.67;;
71351;SDS011;59159;51.652;4.864;2023-11-19T05:52:55;9.20;;;1.80;;
71351;SDS011;59159;51.652;4.864;2023-11-19T05:55:21;8.15;;;2.20;;
71351;SDS011;59159;51.652;4.864;2023-11-19T05:57:49;5.80;;;1.60;;
71351;SDS011;59159;51.652;4.864;2023-11-19T06:00:16;8.65;;;2.30;;
71351;SDS011;59159;51.652;4.864;2023-11-19T06:02:43;7.05;;;1.60;;
71351;SDS011;59159;51.652;4.864;2023-11-19T06:05:09;6.70;;;1.50;;
71351;SDS011;59159;51.652;4.864;2023-11-19T06:07:35;9.00;;;1.42;;
71351;SDS011;59159;51.652;4.864;2023-11-19T06:10:04;8.23;;;2.00;;
71351;SDS011;59159;51.652;4.864;2023-11-19T06:12:31;7.93;;;1.97;;
71351;SDS011;59159;51.652;4.864;2023-11-19T06:14:58;7.72;;;2.00;;
71351;SDS011;59159;51.652;4.864;2023-11-19T06:17:24;6.78;;;2.20;;
71351;SDS011;59159;51.652;4.864;2023-11-19T06:19:50;5.10;;;1.38;;
71351;SDS011;59159;51.652;4.864;2023-11-19T06:22:17;6.93;;;1.53;;
71351;SDS011;59159;51.652;4.864;2023-11-19T06:24:43;8.80;;;2.20;;
71351;SDS011;59159;51.652;4.864;2023-11-19T06:27:09;7.20;;;1.88;;
71351;SDS011;59159;51.652;4.864;2023-11-19T06:29:35;11.03;;;2.07;;
71351;SDS011;59159;51.652;4.864;2023-11-19T06:32:01;6.28;;;1.60;;
71351;SDS011;59159;51.652;4.864;2023-11-19T06:34:27;6.78;;;1.50;;
71351;SDS011;59159;51.652;4.864;2023-11-19T06:36:53;9.50;;;1.90;;
71351;SDS011;59159;51.652;4.864;2023-11-19T06:39:19;6.15;;;1.42;;
71351;SDS011;59159;51.652;4.864;2023-11-19T06:41:45;7.95;;;1.95;;
71351;SDS011;59159;51.652;4.864;2023-11-19T06:44:11;6.97;;;1.35;;
71351;SDS011;59159;51.652;4.864;2023-11-19T06:46:38;6.20;;;1.30;;
71351;SDS011;59159;51.652;4.864;2023-11-19T06:49:04;6.32;;;1.45;;
71351;SDS011;59159;51.652;4.864;2023-11-19T06:51:30;8.88;;;1.95;;
71351;SDS011;59159;51.652;4.864;2023-11-19T06:53:56;7.60;;;1.67;;
71351;SDS011;59159;51.652;4.864;2023-11-19T06:56:23;6.57;;;1.25;;
71351;SDS011;59159;51.652;4.864;2023-11-19T06:58:50;8.00;;;1.60;;
71351;SDS011;59159;51.652;4.864;2023-11-19T07:01:16;10.30;;;1.90;;
71351;SDS011;59159;51.652;4.864;2023-11-19T07:03:44;7.03;;;1.92;;
71351;SDS011;59159;51.652;4.864;2023-11-19T07:06:10;13.07;;;2.25;;
71351;SDS011;59159;51.652;4.864;2023-11-19T07:08:37;8.73;;;1.80;;
71351;SDS011;59159;51.652;4.864;2023-11-19T07:11:03;9.13;;;1.50;;
71351;SDS011;59159;51.652;4.864;2023-11-19T07:13:30;6.72;;;1.50;;
71351;SDS011;59159;51.652;4.864;2023-11-19T07:15:56;11.05;;;1.83;;
71351;SDS011;59159;51.652;4.864;2023-11-19T07:18:22;7.07;;;1.40;;
71351;SDS011;59159;51.652;4.864;2023-11-19T07:20:48;9.90;;;1.63;;
71351;SDS011;59159;51.652;4.864;2023-11-19T07:23:14;8.15;;;1.48;;
71351;SDS011;59159;51.652;4.864;2023-11-19T07:25:43;9.63;;;1.97;;
71351;SDS011;59159;51.652;4.864;2023-11-19T07:28:11;9.15;;;1.65;;
71351;SDS011;59159;51.652;4.864;2023-11-19T07:30:38;8.13;;;1.80;;
71351;SDS011;59159;51.652;4.864;2023-11-19T07:33:04;7.88;;;1.63;;
71351;SDS011;59159;51.652;4.864;2023-11-19T07:35:31;9.10;;;1.70;;
71351;SDS011;59159;51.652;4.864;2023-11-19T07:37:57;9.48;;;1.42;;
71351;SDS011;59159;51.652;4.864;2023-11-19T07:40:23;6.80;;;1.52;;
71351;SDS011;59159;51.652;4.864;2023-11-19T07:42:49;7.27;;;1.80;;
71351;SDS011;59159;51.652;4.864;2023-11-19T07:45:16;9.88;;;1.60;;
71351;SDS011;59159;51.652;4.864;2023-11-19T07:47:42;10.70;;;1.77;;
71351;SDS011;59159;51.652;4.864;2023-11-19T07:50:11;8.10;;;1.60;;
71351;SDS011;59159;51.652;4.864;2023-11-19T07:52:39;8.65;;;1.38;;
71351;SDS011;59159;51.652;4.864;2023-11-19T07:55:05;8.57;;;2.08;;
71351;SDS011;59159;51.652;4.864;2023-11-19T07:57:31;8.43;;;1.95;;
71351;SDS011;59159;51.652;4.864;2023-11-19T07:59:57;6.20;;;1.43;;
71351;SDS011;59159;51.652;4.864;2023-11-19T08:02:23;8.27;;;1.73;;
71351;SDS011;59159;51.652;4.864;2023-11-19T08:04:49;6.22;;;1.42;;
71351;SDS011;59159;51.652;4.864;2023-11-19T08:07:17;12.03;;;1.80;;
71351;SDS011;59159;51.652;4.864;2023-11-19T08:09:43;9.45;;;2.20;;
71351;SDS011;59159;51.652;4.864;2023-11-19T08:12:09;8.85;;;1.80;;
71351;SDS011;59159;51.652;4.864;2023-11-19T08:14:35;9.00;;;1.53;;
71351;SDS011;59159;51.652;4.864;2023-11-19T08:17:04;6.65;;;1.52;;
71351;SDS011;59159;51.652;4.864;2023-11-19T08:19:30;7.45;;;1.75;;
71351;SDS011;59159;51.652;4.864;2023-11-19T08:21:56;10.77;;;1.95;;
71351;SDS011;59159;51.652;4.864;2023-11-19T08:24:22;8.43;;;2.33;;
71351;SDS011;59159;51.652;4.864;2023-11-19T08:26:48;8.77;;;2.10;;
71351;SDS011;59159;51.652;4.864;2023-11-19T08:29:14;7.55;;;1.48;;
71351;SDS011;59159;51.652;4.864;2023-11-19T08:31:40;7.80;;;1.60;;
71351;SDS011;59159;51.652;4.864;2023-11-19T08:34:06;7.75;;;1.50;;
71351;SDS011;59159;51.652;4.864;2023-11-19T08:36:35;7.07;;;1.48;;
71351;SDS011;59159;51.652;4.864;2023-11-19T08:39:01;9.17;;;1.53;;
71351;SDS011;59159;51.652;4.864;2023-11-19T08:41:28;7.80;;;1.50;;
71351;SDS011;59159;51.652;4.864;2023-11-19T08:43:54;10.15;;;1.75;;
71351;SDS011;59159;51.652;4.864;2023-11-19T08:46:20;7.45;;;1.38;;
71351;SDS011;59159;51.652;4.864;2023-11-19T08:48:46;7.43;;;1.63;;
71351;SDS011;59159;51.652;4.864;2023-11-19T08:51:12;7.00;;;1.20;;
71351;SDS011;59159;51.652;4.864;2023-11-19T08:53:38;10.27;;;1.50;;
71351;SDS011;59159;51.652;4.864;2023-11-19T08:56:04;8.67;;;2.07;;
71351;SDS011;59159;51.652;4.864;2023-11-19T08:58:30;8.75;;;1.48;;
71351;SDS011;59159;51.652;4.864;2023-11-19T09:00:57;8.52;;;1.70;;
71351;SDS011;59159;51.652;4.864;2023-11-19T09:03:23;7.90;;;1.73;;
71351;SDS011;59159;51.652;4.864;2023-11-19T09:05:51;7.80;;;1.80;;
71351;SDS011;59159;51.652;4.864;2023-11-19T09:08:17;6.07;;;1.90;;
71351;SDS011;59159;51.652;4.864;2023-11-19T09:10:43;7.28;;;1.63;;
71351;SDS011;59159;51.652;4.864;2023-11-19T09:13:09;8.30;;;1.70;;
71351;SDS011;59159;51.652;4.864;2023-11-19T09:15:35;10.43;;;2.10;;
71351;SDS011;59159;51.652;4.864;2023-11-19T09:18:01;10.00;;;1.83;;
71351;SDS011;59159;51.652;4.864;2023-11-19T09:20:27;10.20;;;1.87;;
71351;SDS011;59159;51.652;4.864;2023-11-19T09:22:57;5.95;;;1.38;;
71351;SDS011;59159;51.652;4.864;2023-11-19T09:25:23;6.43;;;1.35;;
71351;SDS011;59159;51.652;4.864;2023-11-19T09:27:49;8.00;;;1.60;;
71351;SDS011;59159;51.652;4.864;2023-11-19T09:30:15;11.23;;;1.65;;
71351;SDS011;59159;51.652;4.864;2023-11-19T09:32:41;8.55;;;1.65;;
71351;SDS011;59159;51.652;4.864;2023-11-19T09:35:07;6.90;;;1.42;;
71351;SDS011;59159;51.652;4.864;2023-11-19T09:37:33;9.07;;;1.80;;
71351;SDS011;59159;51.652;4.864;2023-11-19T09:39:59;8.73;;;1.60;;
71351;SDS011;59159;51.652;4.864;2023-11-19T09:42:25;8.27;;;1.70;;
71351;SDS011;59159;51.652;4.864;2023-11-19T09:44:52;8.33;;;1.67;;
71351;SDS011;59159;51.652;4.864;2023-11-19T09:47:19;8.10;;;1.73;;
71351;SDS011;59159;51.652;4.864;2023-11-19T09:49:46;8.85;;;1.70;;
71351;SDS011;59159;51.652;4.864;2023-11-19T09:52:12;6.53;;;1.43;;
71351;SDS011;59159;51.652;4.864;2023-11-19T09:54:38;9.55;;;1.83;;
71351;SDS011;59159;51.652;4.864;2023-11-19T09:57:05;6.97;;;1.23;;
71351;SDS011;59159;51.652;4.864;2023-11-19T09:59:32;8.00;;;1.40;;
71351;SDS011;59159;51.652;4.864;2023-11-19T10:01:59;9.40;;;1.50;;
71351;SDS011;59159;51.652;4.864;2023-11-19T10:04:25;8.10;;;1.75;;
71351;SDS011;59159;51.652;4.864;2023-11-19T10:06:51;7.28;;;1.42;;
71351;SDS011;59159;51.652;4.864;2023-11-19T10:09:17;7.17;;;1.33;;
71351;SDS011;59159;51.652;4.864;2023-11-19T10:11:44;9.85;;;1.65;;
71351;SDS011;59159;51.652;4.864;2023-11-19T10:14:11;6.45;;;2.10;;
71351;SDS011;59159;51.652;4.864;2023-11-19T10:16:37;6.83;;;1.90;;
71351;SDS011;59159;51.652;4.864;2023-11-19T10:19:03;6.55;;;1.30;;
71351;SDS011;59159;51.652;4.864;2023-11-19T10:21:32;11.63;;;2.40;;
71351;SDS011;59159;51.652;4.864;2023-11-19T10:23:58;7.38;;;1.50;;
71351;SDS011;59159;51.652;4.864;2023-11-19T10:26:25;9.80;;;1.17;;
71351;SDS011;59159;51.652;4.864;2023-11-19T10:28:51;7.55;;;1.75;;
71351;SDS011;59159;51.652;4.864;2023-11-19T10:31:18;8.82;;;1.70;;
71351;SDS011;59159;51.652;4.864;2023-11-19T10:33:48;8.57;;;1.73;;
71351;SDS011;59159;51.652;4.864;2023-11-19T10:36:14;6.05;;;1.40;;
71351;SDS011;59159;51.652;4.864;2023-11-19T10:38:40;6.55;;;1.40;;
71351;SDS011;59159;51.652;4.864;2023-11-19T10:41:07;6.83;;;1.40;;
71351;SDS011;59159;51.652;4.864;2023-11-19T10:43:42;6.05;;;1.20;;
71351;SDS011;59159;51.652;4.864;2023-11-19T10:46:12;8.63;;;1.40;;
71351;SDS011;59159;51.652;4.864;2023-11-19T10:48:39;6.78;;;1.30;;
71351;SDS011;59159;51.652;4.864;2023-11-19T10:51:06;9.33;;;1.50;;
71351;SDS011;59159;51.652;4.864;2023-11-19T10:53:33;8.65;;;1.30;;
71351;SDS011;59159;51.652;4.864;2023-11-19T10:56:01;8.18;;;1.42;;
71351;SDS011;59159;51.652;4.864;2023-11-19T10:58:28;7.13;;;1.77;;
71351;SDS011;59159;51.652;4.864;2023-11-19T11:00:55;6.40;;;1.80;;
71351;SDS011;59159;51.652;4.864;2023-11-19T11:03:27;7.40;;;1.42;;
71351;SDS011;59159;51.652;4.864;2023-11-19T11:05:55;9.17;;;2.23;;
71351;SDS011;59159;51.652;4.864;2023-11-19T11:08:23;7.72;;;1.48;;
71351;SDS011;59159;51.652;4.864;2023-11-19T11:10:52;7.95;;;1.60;;
71351;SDS011;59159;51.652;4.864;2023-11-19T11:13:19;7.18;;;1.52;;
71351;SDS011;59159;51.652;4.864;2023-11-19T11:15:45;9.33;;;1.50;;
71351;SDS011;59159;51.652;4.864;2023-11-19T11:18:12;9.38;;;1.48;;
71351;SDS011;59159;51.652;4.864;2023-11-19T11:20:39;7.07;;;1.10;;
71351;SDS011;59159;51.652;4.864;2023-11-19T11:26:03;7.05;;;1.20;;
71351;SDS011;59159;51.652;4.864;2023-11-19T11:36:19;9.00;;;1.65;;
71351;SDS011;59159;51.652;4.864;2023-11-19T11:38:47;7.80;;;1.50;;
71351;SDS011;59159;51.652;4.864;2023-11-19T11:43:50;9.82;;;1.58;;
71351;SDS011;59159;51.652;4.864;2023-11-19T11:49:01;7.47;;;1.50;;
71351;SDS011;59159;51.652;4.864;2023-11-19T11:57:00;7.60;;;1.23;;
71351;SDS011;59159;51.652;4.864;2023-11-19T11:59:27;5.07;;;1.30;;
71351;SDS011;59159;51.652;4.864;2023-11-19T12:02:00;6.55;;;1.33;;
71351;SDS011;59159;51.652;4.864;2023-11-19T12:04:26;6.32;;;1.30;;
71351;SDS011;59159;51.652;4.864;2023-11-19T12:09:31;7.63;;;1.33;;
71351;SDS011;59159;51.652;4.864;2023-11-19T12:12:19;5.70;;;1.27;;
71351;SDS011;59159;51.652;4.864;2023-11-19T12:17:36;4.15;;;1.00;;
71351;SDS011;59159;51.652;4.864;2023-11-19T12:20:07;8.05;;;1.38;;
71351;SDS011;59159;51.652;4.864;2023-11-19T12:22:40;7.77;;;1.70;;
71351;SDS011;59159;51.652;4.864;2023-11-19T12:25:07;5.50;;;1.30;;
71351;SDS011;59159;51.652;4.864;2023-11-19T12:27:34;8.27;;;1.40;;
71351;SDS011;59159;51.652;4.864;2023-11-19T12:30:00;6.70;;;1.08;;
71351;SDS011;59159;51.652;4.864;2023-11-19T12:32:27;6.13;;;1.03;;
71351;SDS011;59159;51.652;4.864;2023-11-19T12:35:02;5.25;;;1.10;;
71351;SDS011;59159;51.652;4.864;2023-11-19T12:37:28;5.95;;;1.45;;
71351;SDS011;59159;51.652;4.864;2023-11-19T12:39:56;6.67;;;1.50;;
71351;SDS011;59159;51.652;4.864;2023-11-19T12:42:34;5.88;;;1.73;;
71351;SDS011;59159;51.652;4.864;2023-11-19T12:45:00;5.85;;;1.20;;
71351;SDS011;59159;51.652;4.864;2023-11-19T12:47:26;6.67;;;1.57;;
71351;SDS011;59159;51.652;4.864;2023-11-19T12:49:58;6.10;;;1.17;;
71351;SDS011;59159;51.652;4.864;2023-11-19T12:52:24;8.68;;;1.70;;
71351;SDS011;59159;51.652;4.864;2023-11-19T12:54:50;6.35;;;1.23;;
71351;SDS011;59159;51.652;4.864;2023-11-19T12:57:16;5.60;;;1.23;;
71351;SDS011;59159;51.652;4.864;2023-11-19T12:59:54;6.40;;;1.20;;
71351;SDS011;59159;51.652;4.864;2023-11-19T13:02:20;7.70;;;1.50;;
71351;SDS011;59159;51.652;4.864;2023-11-19T13:04:47;8.37;;;1.30;;
71351;SDS011;59159;51.652;4.864;2023-11-19T13:07:13;8.45;;;1.50;;
71351;SDS011;59159;51.652;4.864;2023-11-19T13:09:38;7.63;;;1.40;;
71351;SDS011;59159;51.652;4.864;2023-11-19T13:12:14;7.77;;;1.83;;
71351;SDS011;59159;51.652;4.864;2023-11-19T13:14:40;7.15;;;1.50;;
71351;SDS011;59159;51.652;4.864;2023-11-19T13:17:14;11.23;;;1.80;;
71351;SDS011;59159;51.652;4.864;2023-11-19T13:19:40;10.40;;;1.83;;
71351;SDS011;59159;51.652;4.864;2023-11-19T13:22:06;8.13;;;1.33;;
71351;SDS011;59159;51.652;4.864;2023-11-19T13:24:32;6.72;;;1.27;;
71351;SDS011;59159;51.652;4.864;2023-11-19T13:26:58;9.05;;;1.92;;
71351;SDS011;59159;51.652;4.864;2023-11-19T13:29:24;7.30;;;1.90;;
71351;SDS011;59159;51.652;4.864;2023-11-19T13:31:50;6.97;;;1.40;;
71351;SDS011;59159;51.652;4.864;2023-11-19T13:34:16;7.65;;;1.60;;
71351;SDS011;59159;51.652;4.864;2023-11-19T13:36:42;8.43;;;1.73;;
71351;SDS011;59159;51.652;4.864;2023-11-19T13:39:08;6.82;;;1.25;;
71351;SDS011;59159;51.652;4.864;2023-11-19T13:41:34;8.85;;;1.80;;
71351;SDS011;59159;51.652;4.864;2023-11-19T13:44:00;7.95;;;1.25;;
71351;SDS011;59159;51.652;4.864;2023-11-19T13:46:26;8.90;;;1.97;;
71351;SDS011;59159;51.652;4.864;2023-11-19T13:48:52;6.15;;;1.77;;
71351;SDS011;59159;51.652;4.864;2023-11-19T13:51:18;6.72;;;1.23;;
71351;SDS011;59159;51.652;4.864;2023-11-19T13:53:44;5.77;;;1.23;;
71351;SDS011;59159;51.652;4.864;2023-11-19T13:56:10;7.93;;;1.80;;
71351;SDS011;59159;51.652;4.864;2023-11-19T13:58:36;6.68;;;1.10;;
71351;SDS011;59159;51.652;4.864;2023-11-19T14:01:03;10.23;;;1.73;;
71351;SDS011;59159;51.652;4.864;2023-11-19T14:03:29;7.55;;;1.23;;
71351;SDS011;59159;51.652;4.864;2023-11-19T14:05:55;11.48;;;1.40;;
71351;SDS011;59159;51.652;4.864;2023-11-19T14:08:23;8.23;;;1.85;;
71351;SDS011;59159;51.652;4.864;2023-11-19T14:10:49;7.27;;;1.50;;
71351;SDS011;59159;51.652;4.864;2023-11-19T14:13:15;5.75;;;1.27;;
71351;SDS011;59159;51.652;4.864;2023-11-19T14:15:41;7.22;;;1.20;;
71351;SDS011;59159;51.652;4.864;2023-11-19T14:18:07;6.37;;;1.00;;
71351;SDS011;59159;51.652;4.864;2023-11-19T14:20:33;7.38;;;2.00;;
71351;SDS011;59159;51.652;4.864;2023-11-19T14:23:00;6.32;;;1.20;;
71351;SDS011;59159;51.652;4.864;2023-11-19T14:25:27;6.57;;;1.70;;
71351;SDS011;59159;51.652;4.864;2023-11-19T14:27:53;5.32;;;1.27;;
71351;SDS011;59159;51.652;4.864;2023-11-19T14:30:19;5.32;;;1.45;;
71351;SDS011;59159;51.652;4.864;2023-11-19T14:32:45;9.82;;;1.08;;
71351;SDS011;59159;51.652;4.864;2023-11-19T14:35:13;10.10;;;1.33;;
71351;SDS011;59159;51.652;4.864;2023-11-19T14:37:39;5.50;;;1.20;;
71351;SDS011;59159;51.652;4.864;2023-11-19T14:40:05;6.93;;;1.33;;
71351;SDS011;59159;51.652;4.864;2023-11-19T14:42:34;7.47;;;1.03;;
71351;SDS011;59159;51.652;4.864;2023-11-19T14:45:00;4.65;;;1.00;;
71351;SDS011;59159;51.652;4.864;2023-11-19T14:47:26;7.38;;;1.63;;
71351;SDS011;59159;51.652;4.864;2023-11-19T14:49:52;6.63;;;1.20;;
71351;SDS011;59159;51.652;4.864;2023-11-19T14:52:18;6.65;;;0.80;;
71351;SDS011;59159;51.652;4.864;2023-11-19T14:54:44;7.00;;;1.90;;
71351;SDS011;59159;51.652;4.864;2023-11-19T14:57:10;8.10;;;1.92;;
71351;SDS011;59159;51.652;4.864;2023-11-19T14:59:37;6.57;;;1.27;;
71351;SDS011;59159;51.652;4.864;2023-11-19T15:02:03;9.80;;;1.98;;
71351;SDS011;59159;51.652;4.864;2023-11-19T15:04:30;6.20;;;1.45;;
71351;SDS011;59159;51.652;4.864;2023-11-19T15:06:57;7.77;;;1.33;;
71351;SDS011;59159;51.652;4.864;2023-11-19T15:09:23;7.68;;;1.33;;
71351;SDS011;59159;51.652;4.864;2023-11-19T15:11:49;7.68;;;1.38;;